createdAt,value
2019-02-24T00:00:53.141Z,0.00
2019-02-24T00:01:53.167Z,0.00
2019-02-24T00:02:53.195Z,0.00
2019-02-24T00:03:54.668Z,0.00
2019-02-24T00:04:53.247Z,0.00
2019-02-24T00:05:53.271Z,0.00
2019-02-24T00:06:53.298Z,0.00
2019-02-24T00:07:53.324Z,0.00
2019-02-24T00:08:53.347Z,0.00
2019-02-24T00:09:53.374Z,0.00
2019-02-24T00:10:53.402Z,0.00
2019-02-24T00:11:53.427Z,0.00
2019-02-24T00:12:53.450Z,0.00
2019-02-24T00:13:53.477Z,0.00
2019-02-24T00:14:53.503Z,0.00
2019-02-24T00:15:53.530Z,0.00
2019-02-24T00:16:53.554Z,0.00
2019-02-24T00:17:53.582Z,0.00
2019-02-24T00:18:53.606Z,0.00
2019-02-24T00:19:53.632Z,0.00
2019-02-24T00:20:53.660Z,0.00
2019-02-24T00:21:53.683Z,0.00
2019-02-24T00:22:53.713Z,0.00
2019-02-24T00:23:53.734Z,0.00
2019-02-24T00:24:53.761Z,0.00
2019-02-24T00:25:53.785Z,0.00
2019-02-24T00:26:53.811Z,0.00
2019-02-24T00:27:53.837Z,0.00
2019-02-24T00:28:53.864Z,0.00
2019-02-24T00:29:53.887Z,0.00
2019-02-24T00:30:53.913Z,0.00
2019-02-24T00:31:53.941Z,0.00
2019-02-24T00:32:53.964Z,0.00
2019-02-24T00:33:53.991Z,0.00
2019-02-24T00:34:54.015Z,0.00
2019-02-24T00:35:54.042Z,0.00
2019-02-24T00:36:54.065Z,0.00
2019-02-24T00:37:54.090Z,0.00
2019-02-24T00:38:54.115Z,0.00
2019-02-24T00:39:54.141Z,0.00
2019-02-24T00:40:54.167Z,0.00
2019-02-24T00:41:54.193Z,0.00
2019-02-24T00:42:54.218Z,0.00
2019-02-24T00:43:54.246Z,0.00
2019-02-24T00:44:54.270Z,0.00
2019-02-24T00:45:54.295Z,0.00
2019-02-24T00:46:54.320Z,0.00
2019-02-24T00:47:54.346Z,0.00
2019-02-24T00:48:54.369Z,0.00
2019-02-24T00:49:54.395Z,0.00
2019-02-24T00:50:54.422Z,0.00
2019-02-24T00:51:54.447Z,0.00
2019-02-24T00:52:54.472Z,0.00
2019-02-24T00:53:54.498Z,0.00
2019-02-24T00:54:54.523Z,0.00
2019-02-24T00:55:54.548Z,0.00
2019-02-24T00:56:54.572Z,0.00
2019-02-24T00:57:54.599Z,0.00
2019-02-24T00:58:54.628Z,0.00
2019-02-24T00:59:54.649Z,0.00
2019-02-24T01:00:54.675Z,0.00
2019-02-24T01:01:54.699Z,0.00
2019-02-24T01:02:54.726Z,0.00
2019-02-24T01:03:54.751Z,0.00
2019-02-24T01:04:54.774Z,0.00
2019-02-24T01:05:54.800Z,0.00
2019-02-24T01:06:54.825Z,0.00
2019-02-24T01:07:54.851Z,0.00
2019-02-24T01:08:54.875Z,0.00
2019-02-24T01:09:54.902Z,0.00
2019-02-24T01:10:54.927Z,0.00
2019-02-24T01:11:54.951Z,0.00
2019-02-24T01:12:54.977Z,0.00
2019-02-24T01:13:55.002Z,0.00
2019-02-24T01:14:55.028Z,0.00
2019-02-24T01:15:55.052Z,0.00
2019-02-24T01:16:55.075Z,0.00
2019-02-24T01:17:55.103Z,0.00
2019-02-24T01:18:55.130Z,0.00
2019-02-24T01:19:55.155Z,0.00
2019-02-24T01:20:55.178Z,0.00
2019-02-24T01:21:55.201Z,0.00
2019-02-24T01:22:55.227Z,0.00
2019-02-24T01:23:55.254Z,0.00
2019-02-24T01:24:55.275Z,0.00
2019-02-24T01:25:55.302Z,0.00
2019-02-24T01:26:55.327Z,0.00
2019-02-24T01:27:55.351Z,0.00
2019-02-24T01:28:55.377Z,0.00
2019-02-24T01:29:55.402Z,0.00
2019-02-24T01:30:55.428Z,0.00
2019-02-24T01:31:55.453Z,0.00
2019-02-24T01:32:55.475Z,0.00
2019-02-24T01:33:55.505Z,0.00
2019-02-24T01:34:55.526Z,0.00
2019-02-24T01:35:55.555Z,0.00
2019-02-24T01:36:55.575Z,0.00
2019-02-24T01:37:55.600Z,0.00
2019-02-24T01:38:55.627Z,0.00
2019-02-24T01:39:55.651Z,0.00
2019-02-24T01:40:55.676Z,0.00
2019-02-24T01:41:55.700Z,0.00
2019-02-24T01:42:55.727Z,0.00
2019-02-24T01:43:55.750Z,0.00
2019-02-24T01:44:55.774Z,0.00
2019-02-24T01:45:55.799Z,0.00
2019-02-24T01:46:55.826Z,0.00
2019-02-24T01:47:55.849Z,0.00
2019-02-24T01:48:55.873Z,0.00
2019-02-24T01:49:55.898Z,0.00
2019-02-24T01:50:55.927Z,0.00
2019-02-24T01:51:55.949Z,0.00
2019-02-24T01:52:56.005Z,0.00
2019-02-24T01:53:55.997Z,0.00
2019-02-24T01:54:56.022Z,0.00
2019-02-24T01:55:56.046Z,0.00
2019-02-24T01:56:56.072Z,0.00
2019-02-24T01:57:56.096Z,0.00
2019-02-24T01:58:56.121Z,0.00
2019-02-24T01:59:56.147Z,0.00
2019-02-24T02:00:56.170Z,0.00
2019-02-24T02:01:56.194Z,0.00
2019-02-24T02:02:56.218Z,0.00
2019-02-24T02:03:56.245Z,0.00
2019-02-24T02:04:56.272Z,0.00
2019-02-24T02:05:56.293Z,0.00
2019-02-24T02:06:56.319Z,0.00
2019-02-24T02:07:56.347Z,0.00
2019-02-24T02:08:56.366Z,0.00
2019-02-24T02:09:56.391Z,0.00
2019-02-24T02:10:56.417Z,0.00
2019-02-24T02:11:56.440Z,0.00
2019-02-24T02:12:57.444Z,0.00
2019-02-24T02:13:56.489Z,0.00
2019-02-24T02:14:56.513Z,0.00
2019-02-24T02:15:56.539Z,0.00
2019-02-24T02:16:56.562Z,0.00
2019-02-24T02:17:56.587Z,0.00
2019-02-24T02:18:56.614Z,0.00
2019-02-24T02:19:56.637Z,0.00
2019-02-24T02:20:56.659Z,0.00
2019-02-24T02:21:56.683Z,0.00
2019-02-24T02:22:56.710Z,0.00
2019-02-24T02:23:56.734Z,0.00
2019-02-24T02:24:56.758Z,0.00
2019-02-24T02:25:56.783Z,0.00
2019-02-24T02:26:56.809Z,0.00
2019-02-24T02:27:56.831Z,0.00
2019-02-24T02:28:56.905Z,0.00
2019-02-24T02:29:56.880Z,0.00
2019-02-24T02:30:56.907Z,0.00
2019-02-24T02:31:57.003Z,0.00
2019-02-24T02:32:56.954Z,0.00
2019-02-24T02:33:56.980Z,0.00
2019-02-24T02:34:57.003Z,0.00
2019-02-24T02:35:57.028Z,0.00
2019-02-24T02:36:57.053Z,0.00
2019-02-24T02:37:57.074Z,0.00
2019-02-24T02:38:57.099Z,0.00
2019-02-24T02:39:57.123Z,0.00
2019-02-24T02:40:57.147Z,0.00
2019-02-24T02:41:57.175Z,0.00
2019-02-24T02:42:57.202Z,0.00
2019-02-24T02:43:57.219Z,0.00
2019-02-24T02:44:57.244Z,0.00
2019-02-24T02:45:57.268Z,0.00
2019-02-24T02:46:57.292Z,0.00
2019-02-24T02:47:57.317Z,0.00
2019-02-24T02:48:57.341Z,0.00
2019-02-24T02:49:57.366Z,0.00
2019-02-24T02:50:57.394Z,0.00
2019-02-24T02:51:57.416Z,0.00
2019-02-24T02:52:57.437Z,0.00
2019-02-24T02:53:57.461Z,0.00
2019-02-24T02:54:57.488Z,0.00
2019-02-24T02:55:57.509Z,0.00
2019-02-24T02:56:57.533Z,0.00
2019-02-24T02:57:57.556Z,0.00
2019-02-24T02:58:57.581Z,0.00
2019-02-24T02:59:57.606Z,0.00
2019-02-24T03:00:57.629Z,0.00
2019-02-24T03:01:57.654Z,0.00
2019-02-24T03:02:57.678Z,0.00
2019-02-24T03:03:57.710Z,0.00
2019-02-24T03:04:57.725Z,0.00
2019-02-24T03:05:57.750Z,0.00
2019-02-24T03:06:57.774Z,0.00
2019-02-24T03:07:57.798Z,0.00
2019-02-24T03:08:57.821Z,0.00
2019-02-24T03:09:57.847Z,0.00
2019-02-24T03:10:57.870Z,0.00
2019-02-24T03:11:57.898Z,0.00
2019-02-24T03:12:57.918Z,0.00
2019-02-24T03:13:57.947Z,0.00
2019-02-24T03:14:57.999Z,0.00
2019-02-24T03:15:58.018Z,0.00
2019-02-24T03:16:58.014Z,0.00
2019-02-24T03:17:58.037Z,0.00
2019-02-24T03:18:58.063Z,0.00
2019-02-24T03:19:58.085Z,0.00
2019-02-24T03:20:58.109Z,0.00
2019-02-24T03:21:58.138Z,0.00
2019-02-24T03:22:58.171Z,0.00
2019-02-24T03:23:58.181Z,0.00
2019-02-24T03:24:58.206Z,0.00
2019-02-24T03:25:58.233Z,0.00
2019-02-24T03:26:58.253Z,0.00
2019-02-24T03:27:58.284Z,0.00
2019-02-24T03:29:04.174Z,0.00
2019-02-24T03:29:58.326Z,0.00
2019-02-24T03:30:58.349Z,0.00
2019-02-24T03:31:58.373Z,0.00
2019-02-24T03:32:58.396Z,0.00
2019-02-24T03:33:58.421Z,0.00
2019-02-24T03:34:58.445Z,0.00
2019-02-24T03:35:58.468Z,0.00
2019-02-24T03:36:58.491Z,0.00
2019-02-24T03:37:58.515Z,0.00
2019-02-24T03:38:58.539Z,0.00
2019-02-24T03:39:58.568Z,0.00
2019-02-24T03:40:58.588Z,0.00
2019-02-24T03:41:58.614Z,0.00
2019-02-24T03:42:58.635Z,0.00
2019-02-24T03:43:58.659Z,0.00
2019-02-24T03:44:58.733Z,0.00
2019-02-24T03:45:58.708Z,0.00
2019-02-24T03:46:58.730Z,0.00
2019-02-24T03:47:58.754Z,0.00
2019-02-24T03:48:58.778Z,0.00
2019-02-24T03:49:58.800Z,0.00
2019-02-24T03:50:58.877Z,0.00
2019-02-24T03:51:58.850Z,0.00
2019-02-24T03:52:58.874Z,0.00
2019-02-24T03:53:58.895Z,0.00
2019-02-24T03:54:58.927Z,0.00
2019-02-24T03:55:58.945Z,0.00
2019-02-24T03:56:58.966Z,0.00
2019-02-24T03:57:58.996Z,0.00
2019-02-24T03:58:59.015Z,0.00
2019-02-24T03:59:59.039Z,0.00
2019-02-24T04:00:59.061Z,0.00
2019-02-24T04:01:59.085Z,0.00
2019-02-24T04:02:59.106Z,0.00
2019-02-24T04:03:59.135Z,0.00
2019-02-24T04:04:59.155Z,0.00
2019-02-24T04:05:59.180Z,0.00
2019-02-24T04:06:59.203Z,0.00
2019-02-24T04:07:59.225Z,0.00
2019-02-24T04:08:59.251Z,0.00
2019-02-24T04:09:59.273Z,0.00
2019-02-24T04:10:59.296Z,0.00
2019-02-24T04:11:59.321Z,0.00
2019-02-24T04:12:59.345Z,0.00
2019-02-24T04:13:59.369Z,0.00
2019-02-24T04:14:59.392Z,0.00
2019-02-24T04:15:59.416Z,0.00
2019-02-24T04:16:59.441Z,0.00
2019-02-24T04:17:59.469Z,0.00
2019-02-24T04:18:59.488Z,0.00
2019-02-24T04:19:59.518Z,0.00
2019-02-24T04:20:59.535Z,0.00
2019-02-24T04:21:59.561Z,0.00
2019-02-24T04:22:59.582Z,0.00
2019-02-24T04:23:59.606Z,0.00
2019-02-24T04:24:59.629Z,0.00
2019-02-24T04:25:59.656Z,0.00
2019-02-24T04:26:59.678Z,0.00
2019-02-24T04:27:59.702Z,0.00
2019-02-24T04:28:59.726Z,0.00
2019-02-24T04:29:59.750Z,0.00
2019-02-24T04:30:59.773Z,0.00
2019-02-24T04:31:59.797Z,0.00
2019-02-24T04:32:59.820Z,0.00
2019-02-24T04:33:59.844Z,0.00
2019-02-24T04:34:59.869Z,0.00
2019-02-24T04:35:59.892Z,0.00
2019-02-24T04:36:59.918Z,0.00
2019-02-24T04:37:59.943Z,0.00
2019-02-24T04:38:59.964Z,0.00
2019-02-24T04:39:59.988Z,0.00
2019-02-24T04:41:00.013Z,0.00
2019-02-24T04:42:00.036Z,0.00
2019-02-24T04:43:00.061Z,0.00
2019-02-24T04:44:00.084Z,0.00
2019-02-24T04:45:00.275Z,0.00
2019-02-24T04:46:00.132Z,0.00
2019-02-24T04:47:00.155Z,0.00
2019-02-24T04:48:00.181Z,0.00
2019-02-24T04:49:00.201Z,0.00
2019-02-24T04:50:00.291Z,0.00
2019-02-24T04:51:00.251Z,0.00
2019-02-24T04:52:00.275Z,0.00
2019-02-24T04:53:00.306Z,0.00
2019-02-24T04:54:00.326Z,0.00
2019-02-24T04:55:00.405Z,0.00
2019-02-24T04:56:00.373Z,0.00
2019-02-24T04:57:00.392Z,0.00
2019-02-24T04:58:00.419Z,0.00
2019-02-24T04:59:00.442Z,0.00
2019-02-24T05:00:00.528Z,0.00
2019-02-24T05:01:00.488Z,0.00
2019-02-24T05:02:00.513Z,0.00
2019-02-24T05:03:00.535Z,0.00
2019-02-24T05:04:00.561Z,0.00
2019-02-24T05:05:00.584Z,0.00
2019-02-24T05:06:00.609Z,0.00
2019-02-24T05:07:00.633Z,0.00
2019-02-24T05:08:00.655Z,0.00
2019-02-24T05:09:00.679Z,0.00
2019-02-24T05:10:00.701Z,0.00
2019-02-24T05:11:00.725Z,0.00
2019-02-24T05:12:00.750Z,0.00
2019-02-24T05:13:00.772Z,0.00
2019-02-24T05:14:00.801Z,0.00
2019-02-24T05:15:00.819Z,0.00
2019-02-24T05:16:00.844Z,0.00
2019-02-24T05:17:00.868Z,0.00
2019-02-24T05:18:00.893Z,0.00
2019-02-24T05:19:00.915Z,0.00
2019-02-24T05:20:00.946Z,0.00
2019-02-24T05:21:00.961Z,0.00
2019-02-24T05:22:00.985Z,0.00
2019-02-24T05:23:01.010Z,0.00
2019-02-24T05:24:01.043Z,0.00
2019-02-24T05:25:01.056Z,0.00
2019-02-24T05:26:01.080Z,0.00
2019-02-24T05:27:01.103Z,0.00
2019-02-24T05:28:01.134Z,0.00
2019-02-24T05:29:01.154Z,0.00
2019-02-24T05:30:01.176Z,0.00
2019-02-24T05:31:01.197Z,0.00
2019-02-24T05:32:01.221Z,0.00
2019-02-24T05:33:01.248Z,0.00
2019-02-24T05:34:03.890Z,0.00
2019-02-24T05:35:01.296Z,0.00
2019-02-24T05:36:01.367Z,0.00
2019-02-24T05:37:01.338Z,0.00
2019-02-24T05:38:01.369Z,0.00
2019-02-24T05:39:01.387Z,0.00
2019-02-24T05:40:01.411Z,0.00
2019-02-24T05:41:01.434Z,0.00
2019-02-24T05:42:01.456Z,0.00
2019-02-24T05:43:01.513Z,0.00
2019-02-24T05:44:01.504Z,0.00
2019-02-24T05:45:01.529Z,0.00
2019-02-24T05:46:01.554Z,0.00
2019-02-24T05:47:01.577Z,0.00
2019-02-24T05:48:01.599Z,0.00
2019-02-24T05:49:01.620Z,0.00
2019-02-24T05:50:01.643Z,0.00
2019-02-24T05:51:01.666Z,4.00
2019-02-24T05:52:01.691Z,4.00
2019-02-24T05:53:01.713Z,0.00
2019-02-24T05:54:01.736Z,4.00
2019-02-24T05:55:01.761Z,8.00
2019-02-24T05:56:01.796Z,8.00
2019-02-24T05:57:01.807Z,8.00
2019-02-24T05:58:01.830Z,8.00
2019-02-24T05:59:01.855Z,12.00
2019-02-24T06:00:01.881Z,12.00
2019-02-24T06:01:01.900Z,16.00
2019-02-24T06:02:01.923Z,20.00
2019-02-24T06:03:01.947Z,24.00
2019-02-24T06:04:01.969Z,28.00
2019-02-24T06:05:01.996Z,36.00
2019-02-24T06:06:02.021Z,44.00
2019-02-24T06:07:02.055Z,56.00
2019-02-24T06:08:02.066Z,64.00
2019-02-24T06:09:02.092Z,76.00
2019-02-24T06:10:02.112Z,92.00
2019-02-24T06:11:02.133Z,108.00
2019-02-24T06:12:02.155Z,124.00
2019-02-24T06:13:02.179Z,144.00
2019-02-24T06:14:02.205Z,164.00
2019-02-24T06:15:02.229Z,192.00
2019-02-24T06:16:02.248Z,216.00
2019-02-24T06:17:02.274Z,244.00
2019-02-24T06:18:02.294Z,272.00
2019-02-24T06:19:02.318Z,308.00
2019-02-24T06:20:02.343Z,340.00
2019-02-24T06:21:02.365Z,376.00
2019-02-24T06:22:02.387Z,416.00
2019-02-24T06:23:02.411Z,456.00
2019-02-24T06:24:02.435Z,496.00
2019-02-24T06:25:02.459Z,540.00
2019-02-24T06:26:02.480Z,584.00
2019-02-24T06:27:02.505Z,628.00
2019-02-24T06:28:02.527Z,676.00
2019-02-24T06:29:02.551Z,724.00
2019-02-24T06:30:05.400Z,772.00
2019-02-24T06:31:02.601Z,820.00
2019-02-24T06:32:02.620Z,868.00
2019-02-24T06:33:02.642Z,916.00
2019-02-24T06:34:02.665Z,968.00
2019-02-24T06:35:02.690Z,1016.00
2019-02-24T06:36:02.713Z,1068.00
2019-02-24T06:37:02.735Z,1112.00
2019-02-24T06:38:02.759Z,1164.00
2019-02-24T06:39:02.806Z,1212.00
2019-02-24T06:40:02.805Z,1260.00
2019-02-24T06:41:02.830Z,1308.00
2019-02-24T06:42:02.853Z,1356.00
2019-02-24T06:43:02.876Z,1404.00
2019-02-24T06:44:02.899Z,1456.00
2019-02-24T06:45:02.924Z,1508.00
2019-02-24T06:46:02.949Z,1568.00
2019-02-24T06:47:03.023Z,1628.00
2019-02-24T06:48:02.992Z,1680.00
2019-02-24T06:49:03.018Z,1728.00
2019-02-24T06:50:03.039Z,1776.00
2019-02-24T06:51:03.061Z,1824.00
2019-02-24T06:52:03.085Z,1872.00
2019-02-24T06:53:03.107Z,1928.00
2019-02-24T06:54:03.130Z,1984.00
2019-02-24T06:55:03.153Z,2040.00
2019-02-24T06:56:03.175Z,2100.00
2019-02-24T06:57:03.222Z,2160.00
2019-02-24T06:58:03.223Z,2224.00
2019-02-24T06:59:03.248Z,2276.00
2019-02-24T07:00:03.472Z,2340.00
2019-02-24T07:01:03.301Z,2404.00
2019-02-24T07:02:03.317Z,2472.00
2019-02-24T07:03:03.341Z,2544.00
2019-02-24T07:04:03.364Z,2616.00
2019-02-24T07:05:03.386Z,2696.00
2019-02-24T07:06:03.410Z,2780.00
2019-02-24T07:07:03.435Z,2856.00
2019-02-24T07:08:03.458Z,2940.00
2019-02-24T07:09:03.484Z,3020.00
2019-02-24T07:10:03.503Z,3104.00
2019-02-24T07:11:03.528Z,3180.00
2019-02-24T07:12:03.552Z,3268.00
2019-02-24T07:13:03.574Z,3336.00
2019-02-24T07:14:03.598Z,3408.00
2019-02-24T07:15:03.622Z,3476.00
2019-02-24T07:16:03.647Z,3548.00
2019-02-24T07:17:03.668Z,3616.00
2019-02-24T07:18:03.696Z,3684.00
2019-02-24T07:19:03.739Z,3752.00
2019-02-24T07:20:03.741Z,3828.00
2019-02-24T07:21:03.765Z,3908.00
2019-02-24T07:22:03.817Z,3976.00
2019-02-24T07:23:03.812Z,4048.00
2019-02-24T07:24:03.837Z,4116.00
2019-02-24T07:25:03.882Z,4188.00
2019-02-24T07:26:03.884Z,4256.00
2019-02-24T07:27:03.909Z,4320.00
2019-02-24T07:28:03.934Z,4388.00
2019-02-24T07:29:03.958Z,4464.00
2019-02-24T07:30:03.982Z,4552.00
2019-02-24T07:31:04.007Z,4628.00
2019-02-24T07:32:04.031Z,4712.00
2019-02-24T07:33:04.055Z,4804.00
2019-02-24T07:34:04.084Z,4884.00
2019-02-24T07:35:04.105Z,4960.00
2019-02-24T07:36:04.130Z,5052.00
2019-02-24T07:37:12.604Z,5136.00
2019-02-24T07:38:04.179Z,5212.00
2019-02-24T07:39:04.205Z,5292.00
2019-02-24T07:40:04.228Z,5364.00
2019-02-24T07:41:04.255Z,5448.00
2019-02-24T07:42:04.280Z,5512.00
2019-02-24T07:43:04.308Z,5588.00
2019-02-24T07:44:04.331Z,5664.00
2019-02-24T07:45:04.361Z,5744.00
2019-02-24T07:46:04.380Z,5836.00
2019-02-24T07:47:04.407Z,5892.00
2019-02-24T07:48:04.433Z,5952.00
2019-02-24T07:49:04.457Z,6024.00
2019-02-24T07:50:04.482Z,6100.00
2019-02-24T07:51:04.508Z,6172.00
2019-02-24T07:52:04.534Z,6248.00
2019-02-24T07:53:04.559Z,6320.00
2019-02-24T07:54:04.585Z,6404.00
2019-02-24T07:55:04.612Z,6476.00
2019-02-24T07:56:04.638Z,6552.00
2019-02-24T07:57:04.663Z,6620.00
2019-02-24T07:58:04.706Z,6692.00
2019-02-24T07:59:04.717Z,6752.00
2019-02-24T08:00:04.741Z,6820.00
2019-02-24T08:01:04.768Z,6888.00
2019-02-24T08:02:04.793Z,6956.00
2019-02-24T08:03:04.820Z,7016.00
2019-02-24T08:04:04.846Z,7084.00
2019-02-24T08:05:04.872Z,7152.00
2019-02-24T08:06:04.898Z,7224.00
2019-02-24T08:07:04.925Z,7596.00
2019-02-24T08:08:04.952Z,8552.00
2019-02-24T08:09:04.977Z,9648.00
2019-02-24T08:10:05.004Z,10260.00
2019-02-24T08:11:05.031Z,10680.00
2019-02-24T08:12:05.060Z,11392.00
2019-02-24T08:13:05.085Z,12228.00
2019-02-24T08:14:05.114Z,13072.00
2019-02-24T08:15:05.139Z,13692.00
2019-02-24T08:16:05.167Z,14292.00
2019-02-24T08:17:05.194Z,14900.00
2019-02-24T08:18:05.221Z,16512.00
2019-02-24T08:19:05.250Z,19392.00
2019-02-24T08:20:05.280Z,21792.00
2019-02-24T08:21:05.374Z,22112.00
2019-02-24T08:22:05.334Z,22624.00
2019-02-24T08:23:05.363Z,23232.00
2019-02-24T08:24:05.391Z,23648.00
2019-02-24T08:25:05.419Z,24576.00
2019-02-24T08:26:05.448Z,25344.00
2019-02-24T08:27:05.477Z,25120.00
2019-02-24T08:28:05.543Z,25344.00
2019-02-24T08:29:05.534Z,26336.00
2019-02-24T08:30:05.564Z,26976.00
2019-02-24T08:31:05.593Z,27808.00
2019-02-24T08:32:05.625Z,27648.00
2019-02-24T08:33:05.654Z,28192.00
2019-02-24T08:34:05.683Z,29280.00
2019-02-24T08:35:05.713Z,30016.00
2019-02-24T08:36:05.744Z,30304.00
2019-02-24T08:37:05.780Z,30400.00
2019-02-24T08:38:05.805Z,31264.00
2019-02-24T08:39:05.836Z,31520.00
2019-02-24T08:40:05.869Z,31872.00
2019-02-24T08:41:05.898Z,33280.00
2019-02-24T08:42:05.929Z,34112.00
2019-02-24T08:43:05.960Z,33408.00
2019-02-24T08:44:05.993Z,32544.00
2019-02-24T08:45:06.025Z,33024.00
2019-02-24T08:46:06.058Z,34432.00
2019-02-24T08:47:06.088Z,34496.00
2019-02-24T08:48:06.121Z,34560.00
2019-02-24T08:49:06.152Z,34400.00
2019-02-24T08:50:06.185Z,34240.00
2019-02-24T08:51:06.218Z,34560.00
2019-02-24T08:52:06.251Z,35552.00
2019-02-24T08:53:06.282Z,36448.00
2019-02-24T08:54:06.318Z,36288.00
2019-02-24T08:55:06.349Z,37536.00
2019-02-24T08:56:06.383Z,38560.00
2019-02-24T08:57:06.415Z,38400.00
2019-02-24T08:58:06.449Z,37952.00
2019-02-24T08:59:06.483Z,36736.00
2019-02-24T09:00:06.518Z,36992.00
2019-02-24T09:01:06.551Z,38400.00
2019-02-24T09:02:06.585Z,39168.00
2019-02-24T09:03:06.619Z,38944.00
2019-02-24T09:04:06.653Z,39808.00
2019-02-24T09:05:06.687Z,40800.00
2019-02-24T09:06:06.722Z,40256.00
2019-02-24T09:07:08.526Z,39584.00
2019-02-24T09:08:06.792Z,40320.00
2019-02-24T09:09:06.826Z,40480.00
2019-02-24T09:10:06.861Z,41312.00
2019-02-24T09:11:06.897Z,42688.00
2019-02-24T09:12:06.933Z,43680.00
2019-02-24T09:13:06.967Z,44256.00
2019-02-24T09:14:07.002Z,44864.00
2019-02-24T09:15:07.243Z,44320.00
2019-02-24T09:16:07.131Z,45152.00
2019-02-24T09:17:07.109Z,46432.00
2019-02-24T09:19:09.830Z,44800.00
2019-02-24T09:21:07.308Z,46272.00
2019-02-24T09:22:07.319Z,47296.00
2019-02-24T09:23:07.348Z,47328.00
2019-02-24T09:25:07.401Z,48864.00
2019-02-24T09:26:07.462Z,47424.00
2019-02-24T09:28:07.529Z,45152.00
2019-02-24T09:29:07.544Z,44000.00
2019-02-24T09:30:07.582Z,44448.00
2019-02-24T09:31:07.618Z,48768.00
2019-02-24T09:32:07.656Z,50240.00
2019-02-24T09:33:07.691Z,51008.00
2019-02-24T09:34:07.728Z,49280.00
2019-02-24T09:35:07.767Z,50208.00
2019-02-24T09:36:07.804Z,51392.00
2019-02-24T09:37:08.043Z,51072.00
2019-02-24T09:38:07.878Z,51776.00
2019-02-24T09:39:07.917Z,52128.00
2019-02-24T09:40:07.954Z,52832.00
2019-02-24T09:41:07.992Z,54720.00
2019-02-24T09:42:08.030Z,55616.00
2019-02-24T09:43:08.067Z,54880.00
2019-02-24T09:44:08.107Z,54496.00
2019-02-24T09:45:08.145Z,55040.00
2019-02-24T09:46:08.207Z,56704.00
2019-02-24T09:47:08.222Z,56384.00
2019-02-24T09:48:08.262Z,54656.00
2019-02-24T09:49:08.299Z,45632.00
2019-02-24T09:50:08.338Z,39360.00
2019-02-24T09:51:08.427Z,38784.00
2019-02-24T09:52:08.416Z,38816.00
2019-02-24T09:53:08.458Z,38400.00
2019-02-24T09:54:08.496Z,38176.00
2019-02-24T09:55:08.533Z,38304.00
2019-02-24T09:56:08.575Z,38432.00
2019-02-24T09:57:08.612Z,39104.00
2019-02-24T09:58:08.652Z,40064.00
2019-02-24T09:59:08.695Z,44192.00
2019-02-24T10:00:08.732Z,54400.00
2019-02-24T10:01:10.965Z,60384.00
2019-02-24T10:02:08.811Z,61120.00
2019-02-24T10:03:08.853Z,61568.00
2019-02-24T10:04:08.893Z,64672.00
2019-02-24T10:05:08.931Z,64288.00
2019-02-24T10:06:08.973Z,63648.00
2019-02-24T10:07:09.012Z,65632.00
2019-02-24T10:08:09.053Z,66272.00
2019-02-24T10:09:09.092Z,67232.00
2019-02-24T10:10:09.133Z,67520.00
2019-02-24T10:11:09.172Z,67904.00
2019-02-24T10:12:09.215Z,67968.00
2019-02-24T10:13:09.259Z,70016.00
2019-02-24T10:14:09.294Z,71168.00
2019-02-24T10:15:09.335Z,70208.00
2019-02-24T10:16:09.375Z,67712.00
2019-02-24T10:17:09.415Z,67776.00
2019-02-24T10:18:09.457Z,68608.00
2019-02-24T10:19:09.496Z,69664.00
2019-02-24T10:20:09.537Z,70720.00
2019-02-24T10:21:09.577Z,72320.00
2019-02-24T10:22:09.618Z,73504.00
2019-02-24T10:23:09.658Z,71360.00
2019-02-24T10:24:09.699Z,72192.00
2019-02-24T10:25:09.741Z,71904.00
2019-02-24T10:26:09.781Z,72448.00
2019-02-24T10:27:09.821Z,73280.00
2019-02-24T10:28:09.871Z,70048.00
2019-02-24T10:29:09.903Z,70848.00
2019-02-24T10:30:09.945Z,70944.00
2019-02-24T10:31:09.995Z,72000.00
2019-02-24T10:32:10.030Z,74304.00
2019-02-24T10:33:10.076Z,73568.00
2019-02-24T10:34:10.110Z,71264.00
2019-02-24T10:35:10.156Z,68096.00
2019-02-24T10:36:10.192Z,68000.00
2019-02-24T10:37:10.233Z,68896.00
2019-02-24T10:38:10.276Z,69472.00
2019-02-24T10:39:10.318Z,70400.00
2019-02-24T10:40:12.374Z,69664.00
2019-02-24T10:41:10.403Z,68096.00
2019-02-24T10:42:10.443Z,66976.00
2019-02-24T10:43:10.488Z,66304.00
2019-02-24T10:44:10.533Z,67040.00
2019-02-24T10:45:10.572Z,69088.00
2019-02-24T10:46:11.436Z,71104.00
2019-02-24T10:47:10.657Z,70304.00
2019-02-24T10:48:14.061Z,68864.00
2019-02-24T10:49:10.739Z,68768.00
2019-02-24T10:50:10.782Z,67488.00
2019-02-24T10:51:10.825Z,66592.00
2019-02-24T10:52:10.868Z,66272.00
2019-02-24T10:53:10.909Z,65312.00
2019-02-24T10:54:10.953Z,63616.00
2019-02-24T10:55:10.997Z,62624.00
2019-02-24T10:56:11.040Z,61760.00
2019-02-24T10:57:12.969Z,63328.00
2019-02-24T10:58:11.124Z,66912.00
2019-02-24T10:59:11.166Z,68832.00
2019-02-24T11:00:11.236Z,67168.00
2019-02-24T11:01:11.252Z,67584.00
2019-02-24T11:02:11.296Z,68192.00
2019-02-24T11:03:11.339Z,69696.00
2019-02-24T11:04:11.382Z,72480.00
2019-02-24T11:05:11.424Z,75872.00
2019-02-24T11:06:11.478Z,73184.00
2019-02-24T11:07:11.510Z,70336.00
2019-02-24T11:08:11.554Z,76192.00
2019-02-24T11:09:11.597Z,78464.00
2019-02-24T11:10:11.640Z,78784.00
2019-02-24T11:11:11.683Z,80192.00
2019-02-24T11:12:11.727Z,81728.00
2019-02-24T11:13:11.771Z,83776.00
2019-02-24T11:14:11.814Z,86944.00
2019-02-24T11:15:11.858Z,87200.00
2019-02-24T11:16:11.901Z,83296.00
2019-02-24T11:17:11.947Z,80992.00
2019-02-24T11:18:11.988Z,85568.00
2019-02-24T11:19:12.033Z,88160.00
2019-02-24T11:20:12.076Z,89120.00
2019-02-24T11:21:12.125Z,89088.00
2019-02-24T11:22:12.164Z,88864.00
2019-02-24T11:23:12.209Z,90752.00
2019-02-24T11:24:12.255Z,91680.00
2019-02-24T11:25:12.499Z,86528.00
2019-02-24T11:26:12.340Z,86912.00
2019-02-24T11:27:12.408Z,94496.00
2019-02-24T11:28:12.429Z,96864.00
2019-02-24T11:29:12.473Z,97216.00
2019-02-24T11:30:12.517Z,96032.00
2019-02-24T11:31:12.564Z,95232.00
2019-02-24T11:32:12.606Z,93952.00
2019-02-24T11:33:12.649Z,94496.00
2019-02-24T11:34:12.698Z,97024.00
2019-02-24T11:35:12.740Z,95136.00
2019-02-24T11:36:12.784Z,92096.00
2019-02-24T11:37:12.830Z,92768.00
2019-02-24T11:38:12.873Z,93440.00
2019-02-24T11:39:12.922Z,93056.00
2019-02-24T11:40:12.962Z,92416.00
2019-02-24T11:41:13.006Z,96096.00
2019-02-24T11:42:13.051Z,101024.00
2019-02-24T11:43:13.097Z,99360.00
2019-02-24T11:44:13.141Z,101216.00
2019-02-24T11:45:13.185Z,101088.00
2019-02-24T11:46:13.231Z,101152.00
2019-02-24T11:47:13.277Z,103104.00
2019-02-24T11:48:13.322Z,103072.00
2019-02-24T11:49:13.366Z,99808.00
2019-02-24T11:50:13.416Z,95328.00
2019-02-24T11:51:13.457Z,93312.00
2019-02-24T11:52:13.501Z,94048.00
2019-02-24T11:53:13.545Z,96288.00
2019-02-24T11:54:13.590Z,96768.00
2019-02-24T11:55:13.635Z,95744.00
2019-02-24T11:56:13.681Z,96384.00
2019-02-24T11:57:13.725Z,100256.00
2019-02-24T11:58:13.771Z,100576.00
2019-02-24T11:59:13.817Z,100000.00
2019-02-24T12:00:13.864Z,97856.00
2019-02-24T12:01:13.906Z,95712.00
2019-02-24T12:02:13.952Z,100128.00
2019-02-24T12:03:13.997Z,105504.00
2019-02-24T12:04:14.043Z,105088.00
2019-02-24T12:05:14.090Z,104320.00
2019-02-24T12:06:14.133Z,104832.00
2019-02-24T12:07:14.180Z,103904.00
2019-02-24T12:08:14.224Z,105408.00
2019-02-24T12:09:14.270Z,105440.00
2019-02-24T12:10:14.316Z,104384.00
2019-02-24T12:11:14.360Z,102688.00
2019-02-24T12:12:14.408Z,103552.00
2019-02-24T12:13:14.471Z,103904.00
2019-02-24T12:14:14.496Z,103808.00
2019-02-24T12:15:14.544Z,102944.00
2019-02-24T12:16:14.586Z,105248.00
2019-02-24T12:17:14.629Z,102720.00
2019-02-24T12:18:14.700Z,100352.00
2019-02-24T12:19:14.748Z,102304.00
2019-02-24T12:20:14.767Z,104128.00
2019-02-24T12:21:14.815Z,103328.00
2019-02-24T12:22:14.857Z,102368.00
2019-02-24T12:23:14.903Z,100992.00
2019-02-24T12:24:14.949Z,99808.00
2019-02-24T12:25:14.994Z,98112.00
2019-02-24T12:26:15.039Z,100928.00
2019-02-24T12:27:15.099Z,104320.00
2019-02-24T12:28:15.133Z,105152.00
2019-02-24T12:29:15.178Z,103904.00
2019-02-24T12:30:15.222Z,105600.00
2019-02-24T12:31:15.272Z,105856.00
2019-02-24T12:32:15.320Z,102816.00
2019-02-24T12:33:15.360Z,102336.00
2019-02-24T12:34:15.407Z,103936.00
2019-02-24T12:35:15.476Z,102592.00